createdAt,value
2023-11-27T00:00:40.174Z,100594.84
2023-11-27T00:03:09.186Z,100580.44
2023-11-27T00:05:37.181Z,100573.94
2023-11-27T00:08:05.716Z,100573.31
2023-11-27T00:10:33.678Z,100573.09
2023-11-27T00:13:03.035Z,100566.84
2023-11-27T00:15:31.019Z,100564.13
2023-11-27T00:17:59.127Z,100546.44
2023-11-27T00:20:27.140Z,100546.19
2023-11-27T00:22:55.127Z,100558.69
2023-11-27T00:25:23.631Z,100552.63
2023-11-27T00:27:51.994Z,100548.22
2023-11-27T00:30:21.589Z,100545.28
2023-11-27T00:32:50.588Z,100542.59
2023-11-27T00:35:18.616Z,100538.44
2023-11-27T00:37:46.586Z,100542.81
2023-11-27T00:40:14.608Z,100534.66
2023-11-27T00:42:43.478Z,100527.31
2023-11-27T00:45:13.024Z,100535.47
2023-11-27T00:47:42.455Z,100521.88
2023-11-27T00:50:11.105Z,100522.94
2023-11-27T00:52:40.456Z,100513.72
2023-11-27T00:55:08.821Z,100507.47
2023-11-27T00:57:37.043Z,100511.84
2023-11-27T01:00:07.967Z,100480.84
2023-11-27T01:02:36.216Z,100495.75
2023-11-27T01:05:06.215Z,100487.22
2023-11-27T01:07:35.127Z,100486.53
2023-11-27T01:10:03.239Z,100480.97
2023-11-27T01:12:31.596Z,100478.84
2023-11-27T01:14:59.541Z,100471.97
2023-11-27T01:17:27.528Z,100473.19
2023-11-27T01:19:55.572Z,100470.47
2023-11-27T01:22:25.240Z,100465.84
2023-11-27T01:24:53.370Z,100462.31
2023-11-27T01:27:21.374Z,100457.69
2023-11-27T01:29:49.298Z,100444.09
2023-11-27T01:32:17.530Z,100437.47
2023-11-27T01:34:45.504Z,100435.16
2023-11-27T01:37:13.742Z,100437.84
2023-11-27T01:39:43.157Z,100440.56
2023-11-27T01:42:11.569Z,100424.50
2023-11-27T01:44:39.554Z,100429.72
2023-11-27T01:47:09.131Z,100423.44
2023-11-27T01:49:39.015Z,100426.16
2023-11-27T01:52:07.907Z,100409.91
2023-11-27T01:54:38.019Z,100409.00
2023-11-27T01:57:07.977Z,100409.84
2023-11-27T01:59:35.918Z,100398.34
2023-11-27T02:02:04.396Z,100391.03
2023-11-27T02:04:33.594Z,100382.88
2023-11-27T02:07:02.025Z,100388.09
2023-11-27T02:09:29.075Z,100373.91
2023-11-27T02:11:57.369Z,100359.56
2023-11-27T02:14:27.364Z,100366.34
2023-11-27T02:16:55.354Z,100364.69
2023-11-27T02:19:23.409Z,100360.09
2023-11-27T02:21:51.726Z,100364.69
2023-11-27T02:24:21.067Z,100351.19
2023-11-27T02:26:49.024Z,100353.81
2023-11-27T02:29:17.057Z,100353.81
2023-11-27T02:31:47.253Z,100343.78
2023-11-27T02:34:18.537Z,100342.94
2023-11-27T02:36:46.604Z,100338.34
2023-11-27T02:39:16.216Z,100334.78
2023-11-27T02:41:45.985Z,100335.63
2023-11-27T02:44:14.067Z,100316.59
2023-11-27T02:46:42.284Z,100319.31
2023-11-27T02:49:10.347Z,100294.41
2023-11-27T02:51:41.094Z,100315.16
2023-11-27T02:54:09.520Z,100300.38
2023-11-27T02:56:37.925Z,100261.88
2023-11-27T02:59:07.347Z,100288.78
2023-11-27T03:01:35.723Z,100286.91
2023-11-27T03:04:04.215Z,100278.75
2023-11-27T03:06:32.298Z,100248.09
2023-11-27T03:09:00.312Z,100271.44
2023-11-27T03:11:29.163Z,100239.09
2023-11-27T03:13:57.108Z,100262.44
2023-11-27T03:16:26.941Z,100257.84
2023-11-27T03:18:55.016Z,100257.84
2023-11-27T03:21:23.582Z,100262.44
2023-11-27T03:23:51.590Z,100248.72
2023-11-27T03:26:20.837Z,100258.69
2023-11-27T03:28:48.804Z,100248.03
2023-11-27T03:31:17.081Z,100242.81
2023-11-27T03:33:46.541Z,100232.78
2023-11-27T03:36:14.679Z,100232.53
2023-11-27T03:38:42.665Z,100225.22
2023-11-27T03:41:18.563Z,100216.25
2023-11-27T03:43:46.491Z,100199.19
2023-11-27T03:46:14.543Z,100211.63
2023-11-27T03:48:42.773Z,100210.81
2023-11-27T03:51:12.300Z,100201.81
2023-11-27T03:53:40.295Z,100195.56
2023-11-27T03:56:09.488Z,100190.13
2023-11-27T03:58:37.480Z,100190.94
2023-11-27T04:01:06.179Z,100181.59
2023-11-27T04:03:34.224Z,100180.91
2023-11-27T04:06:02.461Z,100131.56
2023-11-27T04:08:31.901Z,100164.81
2023-11-27T04:11:00.219Z,100160.94
2023-11-27T04:13:28.236Z,100160.22
2023-11-27T04:15:56.295Z,100160.22
2023-11-27T04:18:24.282Z,100151.22
2023-11-27T04:20:52.562Z,100141.44
2023-11-27T04:23:20.650Z,100144.16
2023-11-27T04:25:50.806Z,100044.00
2023-11-27T04:28:18.827Z,100140.34
2023-11-27T04:30:47.422Z,100140.34
2023-11-27T04:33:16.340Z,100139.53
2023-11-27T04:35:44.313Z,100143.06
2023-11-27T04:38:12.285Z,100126.44
2023-11-27T04:40:40.657Z,100135.75
2023-11-27T04:43:11.585Z,100130.31
2023-11-27T04:45:39.564Z,100128.44
2023-11-27T04:48:08.145Z,100123.00
2023-11-27T04:50:36.097Z,100112.94
2023-11-27T04:53:04.093Z,100102.91
2023-11-27T04:55:33.922Z,100095.81
2023-11-27T04:58:02.876Z,100097.47
2023-11-27T05:00:32.696Z,100085.78
2023-11-27T05:03:01.824Z,100078.69
2023-11-27T05:05:29.813Z,100077.84
2023-11-27T05:07:57.772Z,100074.28
2023-11-27T05:10:25.834Z,100061.53
2023-11-27T05:12:53.900Z,100067.81
2023-11-27T05:15:22.664Z,100056.94
2023-11-27T05:17:53.035Z,100048.66
2023-11-27T05:20:21.120Z,100043.59
2023-11-27T05:22:49.069Z,100044.41
2023-11-27T05:25:17.305Z,100037.06
2023-11-27T05:27:45.265Z,100028.09
2023-11-27T05:30:14.794Z,100006.84
2023-11-27T05:32:43.447Z,100018.06
2023-11-27T05:35:13.294Z,99999.03
2023-11-27T05:37:41.291Z,100000.91
2023-11-27T05:40:11.802Z,99991.13
2023-11-27T05:42:41.934Z,99937.72
2023-11-27T05:45:13.678Z,99986.25
2023-11-27T05:47:41.676Z,99978.09
2023-11-27T05:50:10.841Z,99979.78
2023-11-27T05:52:40.299Z,99977.06
2023-11-27T05:55:09.035Z,99967.84
2023-11-27T05:57:37.033Z,99963.22
2023-11-27T06:00:07.792Z,99950.47
2023-11-27T06:02:36.422Z,99949.63
2023-11-27T06:05:04.498Z,99939.34
2023-11-27T06:07:33.429Z,99941.22
2023-11-27T06:10:03.926Z,99933.06
2023-11-27T06:12:32.294Z,99922.19
2023-11-27T06:15:00.411Z,99901.44
2023-11-27T06:17:28.395Z,99898.56
2023-11-27T06:19:56.335Z,99891.50
2023-11-27T06:22:24.939Z,99890.41
2023-11-27T06:24:55.482Z,99856.78
2023-11-27T06:27:26.720Z,99833.75
2023-11-27T06:29:55.008Z,99863.00
2023-11-27T06:32:23.111Z,99754.50
2023-11-27T06:34:51.443Z,99850.38
2023-11-27T06:37:19.439Z,99858.63
2023-11-27T06:39:47.708Z,99851.78
2023-11-27T06:42:16.092Z,99839.88
2023-11-27T06:44:45.434Z,99831.94
2023-11-27T06:47:13.489Z,99813.75
2023-11-27T06:49:41.466Z,99807.25
2023-11-27T06:52:09.464Z,99812.69
2023-11-27T06:54:39.891Z,99786.31
2023-11-27T06:57:09.887Z,99784.41
2023-11-27T06:59:38.202Z,99781.69
2023-11-27T07:02:07.996Z,99780.63
2023-11-27T07:04:36.053Z,99778.75
2023-11-27T07:07:04.171Z,99757.81
2023-11-27T07:09:32.122Z,99757.00
2023-11-27T07:12:00.554Z,99750.50
2023-11-27T07:14:28.452Z,99755.94
2023-11-27T07:16:56.772Z,99746.72
2023-11-27T07:19:28.248Z,99748.84
2023-11-27T07:21:56.721Z,99747.78
2023-11-27T07:24:24.692Z,99745.88
2023-11-27T07:26:52.872Z,99755.69
2023-11-27T07:29:20.809Z,99744.81
2023-11-27T07:31:50.188Z,99749.16
2023-11-27T07:34:18.227Z,99748.59
2023-11-27T07:36:47.561Z,99746.44
2023-11-27T07:39:17.522Z,99733.94
2023-11-27T07:41:46.613Z,99720.34
2023-11-27T07:44:16.517Z,99715.72
2023-11-27T07:46:44.769Z,99714.94
2023-11-27T07:49:12.835Z,99719.53
2023-11-27T07:51:40.890Z,99715.16
2023-11-27T07:54:10.365Z,99707.00
2023-11-27T07:56:38.345Z,99703.47
2023-11-27T07:59:06.264Z,99693.41
2023-11-27T08:01:35.727Z,99686.09
2023-11-27T08:04:04.129Z,99683.59
2023-11-27T08:06:32.118Z,99668.88
2023-11-27T08:09:00.239Z,99687.16
2023-11-27T08:11:34.375Z,99671.91
2023-11-27T08:14:02.825Z,99671.09
2023-11-27T08:16:31.282Z,99649.25
2023-11-27T08:18:59.454Z,99657.50
2023-11-27T08:21:27.477Z,99656.66
2023-11-27T08:23:56.859Z,99645.78
2023-11-27T08:26:26.518Z,99633.78
2023-11-27T08:28:55.899Z,99639.31
2023-11-27T08:31:32.765Z,99630.31
2023-11-27T08:34:00.989Z,99627.59
2023-11-27T08:36:29.028Z,99622.16
2023-11-27T08:38:58.709Z,99606.13
2023-11-27T08:41:26.629Z,99612.13
2023-11-27T08:43:56.362Z,99601.25
2023-11-27T08:46:25.861Z,99601.25
2023-11-27T08:48:53.935Z,99595.81
2023-11-27T08:51:22.957Z,99595.56
2023-11-27T08:53:51.294Z,99598.53
2023-11-27T08:56:19.342Z,99594.97
2023-11-27T08:58:48.718Z,99579.19
2023-11-27T09:01:18.613Z,99584.63
2023-11-27T09:03:47.030Z,99590.13
2023-11-27T09:06:15.910Z,99576.53
2023-11-27T09:08:43.883Z,99563.78
2023-11-27T09:11:12.619Z,99576.53
2023-11-27T09:13:40.664Z,99575.72
2023-11-27T09:16:10.371Z,99561.88
2023-11-27T09:18:39.776Z,99559.09
2023-11-27T09:21:08.211Z,99567.31
2023-11-27T09:23:36.149Z,99562.97
2023-11-27T09:26:04.155Z,99559.41
2023-11-27T09:28:32.147Z,99545.81
2023-11-27T09:31:02.558Z,99548.03
2023-11-27T09:33:30.667Z,99538.25
2023-11-27T09:36:01.261Z,99532.47
2023-11-27T09:38:29.260Z,99523.00
2023-11-27T09:40:57.563Z,99519.47
2023-11-27T09:43:30.165Z,99511.31
2023-11-27T09:46:00.170Z,99508.59
2023-11-27T09:48:28.363Z,99501.50
2023-11-27T09:50:58.994Z,99503.66
2023-11-27T09:53:30.874Z,99488.38
2023-11-27T09:55:59.073Z,99500.69
2023-11-27T09:58:27.098Z,99489.81
2023-11-27T10:00:56.299Z,99487.94
2023-11-27T10:03:26.350Z,99480.59
2023-11-27T10:05:54.769Z,99477.06
2023-11-27T10:08:23.041Z,99472.69
2023-11-27T10:10:52.432Z,99455.31
2023-11-27T10:13:31.375Z,99453.41
2023-11-27T10:16:06.403Z,99451.78
2023-11-27T10:18:34.710Z,99447.97
2023-11-27T10:21:03.022Z,99439.00
2023-11-27T10:23:31.204Z,99440.66
2023-11-27T10:26:02.088Z,99427.91
2023-11-27T10:28:42.696Z,99421.63
2023-11-27T10:31:10.996Z,99415.13
2023-11-27T10:33:39.094Z,99406.16
2023-11-27T10:36:07.959Z,99406.16
2023-11-27T10:38:37.393Z,99405.06
2023-11-27T10:41:08.385Z,99391.72
2023-11-27T10:43:37.063Z,99381.69
2023-11-27T10:46:08.872Z,99378.16
2023-11-27T10:48:43.981Z,99384.13
2023-11-27T10:51:14.895Z,99376.25
2023-11-27T10:53:44.163Z,99368.94
2023-11-27T10:56:13.729Z,99358.06
2023-11-27T10:58:41.702Z,99353.44
2023-11-27T11:01:10.030Z,99350.97
2023-11-27T11:03:38.431Z,99355.34
2023-11-27T11:06:08.144Z,99347.19
2023-11-27T11:08:36.227Z,99337.31
2023-11-27T11:11:07.795Z,99322.84
2023-11-27T11:13:37.396Z,99331.31
2023-11-27T11:16:10.237Z,99308.50
2023-11-27T11:18:44.837Z,99311.53
2023-11-27T11:21:35.179Z,99308.31
2023-11-27T11:24:09.955Z,99297.63
2023-11-27T11:26:47.748Z,99166.91
2023-11-27T11:29:24.872Z,99305.59
2023-11-27T11:32:00.856Z,99293.91
2023-11-27T11:34:30.175Z,99289.28
2023-11-27T11:36:58.987Z,99273.75
2023-11-27T11:39:27.143Z,99272.16
2023-11-27T11:42:04.050Z,99263.19
2023-11-27T11:44:35.279Z,99252.00
2023-11-27T11:47:07.937Z,99217.00
2023-11-27T11:49:36.434Z,99249.59
2023-11-27T11:52:09.742Z,99243.09
2023-11-27T11:54:40.428Z,99242.25
2023-11-27T11:57:19.925Z,99239.28
2023-11-27T11:59:50.642Z,99229.50
2023-11-27T12:02:20.642Z,99228.66
2023-11-27T12:04:53.003Z,99222.16
2023-11-27T12:07:21.264Z,99201.94
2023-11-27T12:09:50.463Z,99218.34
2023-11-27T12:12:21.101Z,99212.13
2023-11-27T12:14:50.969Z,99206.69
2023-11-27T12:17:22.693Z,99199.59
2023-11-27T12:19:51.621Z,99200.44
2023-11-27T12:22:21.021Z,99187.66
2023-11-27T12:24:49.206Z,99184.38
2023-11-27T12:27:17.697Z,99193.09
2023-11-27T12:29:50.449Z,99185.72
2023-11-27T12:32:25.834Z,99171.34
2023-11-27T12:34:53.994Z,99166.72
2023-11-27T12:37:22.378Z,99157.78
2023-11-27T12:39:54.054Z,99159.38
2023-11-27T12:42:22.131Z,99150.69
2023-11-27T12:44:50.330Z,99153.13
2023-11-27T12:47:21.213Z,99155.84
2023-11-27T12:49:56.397Z,99150.16
2023-11-27T12:52:27.560Z,99131.34
2023-11-27T12:54:57.114Z,99137.91
2023-11-27T12:57:26.735Z,99129.50
2023-11-27T12:59:54.744Z,99134.91
2023-11-27T13:02:26.619Z,99116.69
2023-11-27T13:04:58.613Z,99125.94
2023-11-27T13:07:27.111Z,99116.72
2023-11-27T13:09:56.838Z,99099.59
2023-11-27T13:12:27.192Z,99113.19
2023-11-27T13:14:55.410Z,99102.59
2023-11-27T13:17:24.658Z,99100.41
2023-11-27T13:19:54.313Z,99099.59
2023-11-27T13:22:24.336Z,99088.72
2023-11-27T13:24:52.548Z,99083.28
2023-11-27T13:27:22.961Z,99082.47
2023-11-27T13:29:52.437Z,99075.13
2023-11-27T13:32:21.072Z,99066.97
2023-11-27T13:34:57.901Z,99059.66
2023-11-27T13:37:30.014Z,99054.22
2023-11-27T13:39:59.384Z,99050.69
2023-11-27T13:42:31.658Z,99036.81
2023-11-27T13:45:00.340Z,99051.50
2023-11-27T13:47:28.546Z,99046.06
2023-11-27T13:49:57.376Z,99041.44
2023-11-27T13:52:30.010Z,99038.47
2023-11-27T13:55:00.541Z,99031.38
2023-11-27T13:57:32.597Z,99038.22
2023-11-27T14:00:01.008Z,99030.91
2023-11-27T14:02:33.372Z,99029.78
2023-11-27T14:05:11.074Z,99022.75
2023-11-27T14:07:43.511Z,99017.31
2023-11-27T14:10:28.160Z,99015.38
2023-11-27T14:13:02.640Z,99010.75
2023-11-27T14:15:39.843Z,99006.44
2023-11-27T14:18:32.333Z,98998.53
2023-11-27T14:21:26.113Z,98997.47
2023-11-27T14:23:58.077Z,98995.00
2023-11-27T14:26:56.721Z,98999.59
2023-11-27T14:29:23.700Z,98981.66
2023-11-27T14:31:52.319Z,98987.09
2023-11-27T14:34:22.807Z,98964.00
2023-11-27T14:36:50.795Z,98973.25
2023-11-27T14:39:18.716Z,98968.06
2023-11-27T14:41:50.697Z,98970.53
2023-11-27T14:44:19.324Z,98947.94
2023-11-27T14:46:48.299Z,98963.47
2023-11-27T14:49:16.642Z,98950.13
2023-11-27T14:51:44.700Z,98956.94
2023-11-27T14:54:12.709Z,98941.72
2023-11-27T14:56:41.491Z,98936.03
2023-11-27T14:59:11.290Z,98935.22
2023-11-27T15:01:44.041Z,98935.22
2023-11-27T15:04:14.302Z,98928.69
2023-11-27T15:06:43.359Z,98927.88
2023-11-27T15:09:20.188Z,98917.00
2023-11-27T15:11:51.706Z,98908.53
2023-11-27T15:14:21.476Z,98886.78
2023-11-27T15:16:50.272Z,98900.69
2023-11-27T15:19:19.698Z,98899.88
2023-11-27T15:21:48.111Z,98894.44
2023-11-27T15:24:16.318Z,98898.50
2023-11-27T15:26:44.309Z,98892.00
2023-11-27T15:29:14.315Z,98890.09
2023-11-27T15:31:44.321Z,98889.28
2023-11-27T15:34:12.375Z,98877.59
2023-11-27T15:36:40.426Z,98868.34
2023-11-27T15:39:16.893Z,98868.34
2023-11-27T15:41:46.586Z,98856.13
2023-11-27T15:44:15.238Z,98856.66
2023-11-27T15:46:44.815Z,98847.69
2023-11-27T15:49:12.786Z,98848.81
2023-11-27T15:51:42.799Z,98849.88
2023-11-27T15:54:11.744Z,98843.63
2023-11-27T15:56:39.779Z,98843.63
2023-11-27T15:59:10.229Z,98841.72
2023-11-27T16:01:38.647Z,98838.19
2023-11-27T16:04:09.126Z,98831.94
2023-11-27T16:06:37.207Z,98821.31
2023-11-27T16:09:06.896Z,98816.72
2023-11-27T16:11:36.142Z,98818.59
2023-11-27T16:14:05.273Z,98812.34
2023-11-27T16:16:35.614Z,98806.09
2023-11-27T16:19:03.758Z,98804.19
2023-11-27T16:21:33.429Z,98804.19
2023-11-27T16:24:01.446Z,98797.94
2023-11-27T16:26:29.432Z,98797.13
2023-11-27T16:28:57.352Z,98793.34
2023-11-27T16:31:25.965Z,98790.63
2023-11-27T16:33:54.223Z,98797.69
2023-11-27T16:36:22.163Z,98796.88
2023-11-27T16:38:52.804Z,98793.34
2023-11-27T16:41:21.657Z,98786.00
2023-11-27T16:43:49.875Z,98776.50
2023-11-27T16:46:18.261Z,98786.00
2023-11-27T16:48:46.408Z,98779.75
2023-11-27T16:51:14.456Z,98777.84
2023-11-27T16:53:42.540Z,98764.25
2023-11-27T16:56:12.857Z,98725.34
2023-11-27T16:58:40.768Z,98761.53
2023-11-27T17:01:09.055Z,98749.84
2023-11-27T17:03:38.659Z,98718.28
2023-11-27T17:06:07.806Z,98733.84
2023-11-27T17:08:39.321Z,98747.13
2023-11-27T17:11:09.364Z,98733.56
2023-11-27T17:13:38.925Z,98738.16
2023-11-27T17:16:07.834Z,98728.41
2023-11-27T17:18:36.216Z,98737.09
2023-11-27T17:21:05.181Z,98711.81
2023-11-27T17:23:33.212Z,98719.97
2023-11-27T17:26:01.323Z,98724.56
2023-11-27T17:28:29.457Z,98716.16
2023-11-27T17:30:58.822Z,98722.16
2023-11-27T17:33:28.793Z,98721.34
2023-11-27T17:35:56.796Z,98723.25
2023-11-27T17:38:24.734Z,98726.78
2023-11-27T17:40:53.037Z,98725.94
2023-11-27T17:43:21.617Z,98729.50
2023-11-27T17:45:54.795Z,98719.44
2023-11-27T17:48:24.207Z,98727.84
2023-11-27T17:50:52.823Z,98723.25
2023-11-27T17:53:21.684Z,98728.69
2023-11-27T17:55:57.277Z,98725.97
2023-11-27T17:58:26.264Z,98723.25
2023-11-27T18:00:55.144Z,98717.81
2023-11-27T18:03:24.681Z,98709.66
2023-11-27T18:05:52.661Z,98721.34
2023-11-27T18:08:20.609Z,98717.81
2023-11-27T18:10:50.743Z,98709.66
2023-11-27T18:13:18.772Z,98708.00
2023-11-27T18:15:47.109Z,98707.19
2023-11-27T18:18:15.083Z,98699.03
2023-11-27T18:20:44.980Z,98691.72
2023-11-27T18:23:14.402Z,98697.16
2023-11-27T18:25:42.401Z,98700.69
2023-11-27T18:28:10.522Z,98693.34
2023-11-27T18:30:39.851Z,98691.72
2023-11-27T18:33:07.825Z,98689.81
2023-11-27T18:35:37.506Z,98682.47
2023-11-27T18:38:07.025Z,98686.00
2023-11-27T18:40:36.515Z,98681.41
2023-11-27T18:43:05.759Z,98675.41
2023-11-27T18:45:33.733Z,98666.69
2023-11-27T18:48:02.353Z,98676.50
2023-11-27T18:50:30.949Z,98678.13
2023-11-27T18:52:59.034Z,98669.97
2023-11-27T18:55:28.670Z,98667.25
2023-11-27T18:57:56.899Z,98663.72
2023-11-27T19:00:24.858Z,98658.03
2023-11-27T19:02:53.042Z,98660.75
2023-11-27T19:05:22.067Z,98667.00
2023-11-27T19:07:53.180Z,98658.84
2023-11-27T19:10:23.439Z,98667.81
2023-11-27T19:12:53.959Z,98673.25
2023-11-27T19:15:23.940Z,98660.75
2023-11-27T19:17:52.353Z,98651.78
2023-11-27T19:20:20.427Z,98637.38
2023-11-27T19:22:48.480Z,98656.13
2023-11-27T19:25:16.778Z,98655.03
2023-11-27T19:27:49.075Z,98658.84
2023-11-27T19:30:19.637Z,98628.41
2023-11-27T19:32:47.979Z,98648.78
2023-11-27T19:35:18.114Z,98651.50
2023-11-27T19:37:46.484Z,98648.78
2023-11-27T19:40:14.614Z,98632.47
2023-11-27T19:42:43.572Z,98635.19
2023-11-27T19:45:12.284Z,98625.16
2023-11-27T19:47:41.986Z,98625.97
2023-11-27T19:50:11.520Z,98617.00
2023-11-27T19:52:39.577Z,98630.59
2023-11-27T19:55:08.850Z,98606.94
2023-11-27T19:57:36.952Z,98622.44
2023-11-27T20:00:08.593Z,98621.63
2023-11-27T20:02:37.481Z,98587.34
2023-11-27T20:05:08.398Z,98608.56
2023-11-27T20:07:37.148Z,98625.97
2023-11-27T20:10:06.326Z,98629.75
2023-11-27T20:12:34.681Z,98622.16
2023-11-27T20:15:03.201Z,98615.38
2023-11-27T20:17:31.392Z,98622.44
2023-11-27T20:19:59.493Z,98621.63
2023-11-27T20:22:29.226Z,98612.38
2023-11-27T20:24:57.213Z,98618.91
2023-11-27T20:27:29.661Z,98621.63
2023-11-27T20:29:57.640Z,98615.38
2023-11-27T20:32:26.425Z,98615.38
2023-11-27T20:34:54.480Z,98620.78
2023-11-27T20:37:22.537Z,98615.38
2023-11-27T20:39:51.850Z,98613.47
2023-11-27T20:42:20.192Z,98610.75
2023-11-27T20:44:54.113Z,98608.84
2023-11-27T20:47:25.053Z,98612.38
2023-11-27T20:49:55.909Z,98602.59
2023-11-27T20:52:23.389Z,98591.44
2023-11-27T20:54:52.753Z,98618.91
2023-11-27T20:57:20.699Z,98613.47
2023-11-27T20:59:48.707Z,98620.78
2023-11-27T21:02:17.119Z,98614.28
2023-11-27T21:04:45.472Z,98614.28
2023-11-27T21:07:13.415Z,98618.91
2023-11-27T21:09:41.445Z,98620.53
2023-11-27T21:12:11.953Z,98622.44
2023-11-27T21:14:40.592Z,98622.44
2023-11-27T21:17:08.627Z,98608.28
2023-11-27T21:19:37.135Z,98622.44
2023-11-27T21:22:05.917Z,98634.13
2023-11-27T21:24:33.995Z,98627.88
2023-11-27T21:27:04.610Z,98627.06
2023-11-27T21:29:36.268Z,98627.06
2023-11-27T21:32:04.771Z,98636.03
2023-11-27T21:34:32.815Z,98637.09
2023-11-27T21:37:01.050Z,98645.00
2023-11-27T21:39:29.244Z,98653.13
2023-11-27T21:41:57.446Z,98651.50
2023-11-27T21:44:25.498Z,98657.75
2023-11-27T21:46:54.853Z,98655.84
2023-11-27T21:49:22.888Z,98650.41
2023-11-27T21:51:51.463Z,98655.31
2023-11-27T21:54:19.419Z,98670.53
2023-11-27T21:56:47.384Z,98663.19
2023-11-27T21:59:15.416Z,98665.91
2023-11-27T22:01:44.345Z,98662.38
2023-11-27T22:04:13.968Z,98668.63
2023-11-27T22:06:41.900Z,98672.44
2023-11-27T22:09:10.250Z,98669.44
2023-11-27T22:11:38.834Z,98678.69
2023-11-27T22:14:06.824Z,98676.78
2023-11-27T22:16:34.925Z,98680.56
2023-11-27T22:19:02.997Z,98679.50
2023-11-27T22:21:35.166Z,98683.03
2023-11-27T22:24:03.706Z,98685.75
2023-11-27T22:26:31.782Z,98693.09
2023-11-27T22:29:00.058Z,98691.19
2023-11-27T22:31:29.946Z,98691.44
2023-11-27T22:33:58.068Z,98703.94
2023-11-27T22:36:29.735Z,98696.31
2023-11-27T22:38:59.106Z,98698.22
2023-11-27T22:41:27.420Z,98710.22
2023-11-27T22:43:55.611Z,98705.56
2023-11-27T22:46:23.592Z,98703.13
2023-11-27T22:48:51.553Z,98704.75
2023-11-27T22:51:19.542Z,98713.72
2023-11-27T22:53:47.514Z,98727.31
2023-11-27T22:56:20.721Z,98730.84
2023-11-27T22:58:48.755Z,98728.94
2023-11-27T23:01:17.042Z,98741.72
2023-11-27T23:03:45.103Z,98723.75
2023-11-27T23:06:25.233Z,98751.75
2023-11-27T23:09:00.996Z,98754.47
2023-11-27T23:11:30.935Z,98747.97
2023-11-27T23:13:59.037Z,98761.84
2023-11-27T23:16:27.232Z,98765.34
2023-11-27T23:18:55.211Z,98766.47
2023-11-27T23:21:24.979Z,98772.72
2023-11-27T23:23:52.983Z,98778.16
2023-11-27T23:26:20.914Z,98768.34
2023-11-27T23:28:50.328Z,98796.34
2023-11-27T23:31:18.656Z,98797.44
2023-11-27T23:33:46.592Z,98797.94
2023-11-27T23:36:14.605Z,98799.59
2023-11-27T23:38:42.575Z,98804.19
2023-11-27T23:41:10.832Z,98812.34
2023-11-27T23:43:38.872Z,98767.97
2023-11-27T23:46:08.501Z,98818.59
2023-11-27T23:48:36.460Z,98828.66
2023-11-27T23:51:04.438Z,98825.13
2023-11-27T23:53:32.427Z,98824.31
2023-11-27T23:56:00.479Z,98827.84
2023-11-27T23:58:30.728Z,98825.13
